createdAt,value
2023-05-10T00:01:35.492Z,70.30
2023-05-10T00:04:02.381Z,70.60
2023-05-10T00:06:28.856Z,70.30
2023-05-10T00:08:55.685Z,70.30
2023-05-10T00:11:23.115Z,70.40
2023-05-10T00:13:49.932Z,70.20
2023-05-10T00:16:16.509Z,70.20
2023-05-10T00:18:43.047Z,70.20
2023-05-10T00:21:09.518Z,70.20
2023-05-10T00:23:35.962Z,70.00
2023-05-10T00:26:02.876Z,70.00
2023-05-10T00:28:29.484Z,70.20
2023-05-10T00:30:56.362Z,70.10
2023-05-10T00:33:23.215Z,70.10
2023-05-10T00:35:49.983Z,70.10
2023-05-10T00:38:16.528Z,70.00
2023-05-10T00:40:43.202Z,70.30
2023-05-10T00:43:10.164Z,70.20
2023-05-10T00:45:37.635Z,70.30
2023-05-10T00:48:05.054Z,70.20
2023-05-10T00:50:33.358Z,70.10
2023-05-10T00:53:00.819Z,70.40
2023-05-10T00:55:27.534Z,70.30
2023-05-10T00:57:55.004Z,70.00
2023-05-10T01:00:21.573Z,69.90
2023-05-10T01:02:48.910Z,69.90
2023-05-10T01:05:16.093Z,69.60
2023-05-10T01:07:42.595Z,70.00
2023-05-10T01:10:10.033Z,70.00
2023-05-10T01:12:43.476Z,70.30
2023-05-10T01:15:11.845Z,70.20
2023-05-10T01:17:40.919Z,70.00
2023-05-10T01:20:10.036Z,69.80
2023-05-10T01:23:11.357Z,69.90
2023-05-10T01:26:25.536Z,69.90
2023-05-10T01:29:03.737Z,69.40
2023-05-10T01:31:53.086Z,69.90
2023-05-10T01:34:30.390Z,70.10
2023-05-10T01:37:07.094Z,70.30
2023-05-10T01:39:42.995Z,70.50
2023-05-10T01:42:15.259Z,70.50
2023-05-10T01:44:55.075Z,71.40
2023-05-10T01:47:45.989Z,70.80
2023-05-10T01:50:19.588Z,70.60
2023-05-10T01:52:54.531Z,70.10
2023-05-10T01:55:23.848Z,69.90
2023-05-10T01:57:57.523Z,70.10
2023-05-10T02:00:25.620Z,70.20
2023-05-10T02:02:53.926Z,70.40
2023-05-10T02:05:22.419Z,70.30
2023-05-10T02:07:50.423Z,70.40
2023-05-10T02:10:18.594Z,70.20
2023-05-10T02:12:48.926Z,70.10
2023-05-10T02:15:23.374Z,70.20
2023-05-10T02:17:50.474Z,70.40
2023-05-10T02:20:19.878Z,70.60
2023-05-10T02:22:49.960Z,70.70
2023-05-10T02:25:18.493Z,70.70
2023-05-10T02:27:47.273Z,70.70
2023-05-10T02:30:15.322Z,70.30
2023-05-10T02:32:43.624Z,70.30
2023-05-10T02:35:11.481Z,70.30
2023-05-10T02:37:39.224Z,70.30
2023-05-10T02:40:07.455Z,70.50
2023-05-10T02:42:37.588Z,70.70
2023-05-10T02:45:08.974Z,70.40
2023-05-10T02:47:36.008Z,70.60
2023-05-10T02:50:03.136Z,70.60
2023-05-10T02:52:37.973Z,70.80
2023-05-10T02:55:06.932Z,70.70
2023-05-10T02:57:35.414Z,70.60
2023-05-10T03:00:03.194Z,70.50
2023-05-10T03:02:30.125Z,70.30
2023-05-10T03:04:56.719Z,71.10
2023-05-10T03:07:24.007Z,70.30
2023-05-10T03:09:50.728Z,70.00
2023-05-10T03:12:36.845Z,70.10
2023-05-10T03:15:40.879Z,70.40
2023-05-10T03:18:15.943Z,70.30
2023-05-10T03:20:50.744Z,70.40
2023-05-10T03:26:27.321Z,70.40
2023-05-10T03:28:55.541Z,70.80
2023-05-10T03:31:22.102Z,70.80
2023-05-10T03:33:54.095Z,70.70
2023-05-10T03:36:21.179Z,70.90
2023-05-10T03:38:47.650Z,70.60
2023-05-10T03:41:14.477Z,70.60
2023-05-10T03:43:40.928Z,70.80
2023-05-10T03:46:07.367Z,71.30
2023-05-10T03:48:34.352Z,70.60
2023-05-10T03:51:01.182Z,70.30
2023-05-10T03:53:28.027Z,70.30
2023-05-10T03:55:54.979Z,70.20
2023-05-10T03:58:21.465Z,69.80
2023-05-10T04:00:48.339Z,70.70
2023-05-10T04:03:15.367Z,69.80
2023-05-10T04:05:42.000Z,70.20
2023-05-10T04:08:08.788Z,70.40
2023-05-10T04:10:35.268Z,69.80
2023-05-10T04:13:01.776Z,70.00
2023-05-10T04:15:28.661Z,69.60
2023-05-10T04:17:55.142Z,70.30
2023-05-10T04:20:22.031Z,70.20
2023-05-10T04:22:48.469Z,69.70
2023-05-10T04:25:15.228Z,69.90
2023-05-10T04:27:42.002Z,69.70
2023-05-10T04:30:09.198Z,69.70
2023-05-10T04:32:35.725Z,70.10
2023-05-10T04:35:02.700Z,69.80
2023-05-10T04:37:29.175Z,70.10
2023-05-10T04:39:55.626Z,70.00
2023-05-10T04:42:22.047Z,69.90
2023-05-10T04:44:48.927Z,69.70
2023-05-10T04:47:15.362Z,69.90
2023-05-10T04:49:41.857Z,69.80
2023-05-10T04:52:08.398Z,69.90
2023-05-10T04:54:34.889Z,70.00
2023-05-10T04:57:01.738Z,69.70
2023-05-10T04:59:28.249Z,69.80
2023-05-10T05:01:55.164Z,69.50
2023-05-10T05:04:21.633Z,69.70
2023-05-10T05:06:48.241Z,70.00
2023-05-10T05:09:14.674Z,69.70
2023-05-10T05:11:41.570Z,69.60
2023-05-10T05:14:08.031Z,69.50
2023-05-10T05:16:34.940Z,69.50
2023-05-10T05:19:01.569Z,69.50
2023-05-10T05:21:28.031Z,69.60
2023-05-10T05:23:55.254Z,69.70
2023-05-10T05:26:21.730Z,69.10
2023-05-10T05:28:48.222Z,68.80
2023-05-10T05:31:14.717Z,68.50
2023-05-10T05:33:41.602Z,68.60
2023-05-10T05:36:08.212Z,68.00
2023-05-10T05:38:34.883Z,68.00
2023-05-10T05:41:01.638Z,68.50
2023-05-10T05:43:28.095Z,68.20
2023-05-10T05:45:55.173Z,67.70
2023-05-10T05:48:22.741Z,68.00
2023-05-10T05:50:49.579Z,67.50
2023-05-10T05:53:16.083Z,67.60
2023-05-10T05:55:52.694Z,67.60
2023-05-10T05:58:19.154Z,67.40
2023-05-10T06:00:45.968Z,67.90
2023-05-10T06:03:12.942Z,67.40
2023-05-10T06:05:39.867Z,67.40
2023-05-10T06:08:06.715Z,67.60
2023-05-10T06:10:33.278Z,67.10
2023-05-10T06:13:00.161Z,66.70
2023-05-10T06:15:26.661Z,66.70
2023-05-10T06:17:53.577Z,67.00
2023-05-10T06:20:20.081Z,67.10
2023-05-10T06:22:47.110Z,66.90
2023-05-10T06:25:13.772Z,66.40
2023-05-10T06:27:40.214Z,66.60
2023-05-10T06:30:12.872Z,66.90
2023-05-10T06:32:40.410Z,66.80
2023-05-10T06:35:07.867Z,66.20
2023-05-10T06:37:34.557Z,67.20
2023-05-10T06:40:01.162Z,67.10
2023-05-10T06:42:27.599Z,66.20
2023-05-10T06:44:54.471Z,66.40
2023-05-10T06:47:20.963Z,66.30
2023-05-10T06:49:47.678Z,65.90
2023-05-10T06:52:14.162Z,66.10
2023-05-10T06:54:40.697Z,66.00
2023-05-10T06:57:16.046Z,66.00
2023-05-10T06:59:50.248Z,65.60
2023-05-10T07:02:16.822Z,65.60
2023-05-10T07:04:43.432Z,66.60
2023-05-10T07:07:10.310Z,66.40
2023-05-10T07:09:36.748Z,65.40
2023-05-10T07:12:03.388Z,64.90
2023-05-10T07:14:29.917Z,65.40
2023-05-10T07:16:56.384Z,65.50
2023-05-10T07:19:22.997Z,64.70
2023-05-10T07:21:49.960Z,64.50
2023-05-10T07:24:16.806Z,64.50
2023-05-10T07:26:43.312Z,64.50
2023-05-10T07:29:09.906Z,64.60
2023-05-10T07:31:36.436Z,64.50
2023-05-10T07:34:02.897Z,64.50
2023-05-10T07:36:29.769Z,64.10
2023-05-10T07:38:56.203Z,64.50
2023-05-10T07:41:22.997Z,63.40
2023-05-10T07:43:49.447Z,64.60
2023-05-10T07:46:16.250Z,64.50
2023-05-10T07:48:42.767Z,64.60
2023-05-10T07:51:09.560Z,65.80
2023-05-10T07:53:36.221Z,64.40
2023-05-10T07:56:21.358Z,64.30
2023-05-10T07:58:47.920Z,62.60
2023-05-10T08:01:14.376Z,62.10
2023-05-10T08:03:41.270Z,60.80
2023-05-10T08:06:07.876Z,60.20
2023-05-10T08:08:34.479Z,61.00
2023-05-10T08:11:00.953Z,60.40
2023-05-10T08:13:27.534Z,58.80
2023-05-10T08:15:54.088Z,56.90
2023-05-10T08:18:22.055Z,56.50
2023-05-10T08:20:48.817Z,55.70
2023-05-10T08:23:15.846Z,55.00
2023-05-10T08:25:42.394Z,54.70
2023-05-10T08:28:10.049Z,56.10
2023-05-10T08:30:38.437Z,56.40
2023-05-10T08:33:05.329Z,57.80
2023-05-10T08:35:31.868Z,57.70
2023-05-10T08:37:58.332Z,58.30
2023-05-10T08:40:27.199Z,57.90
2023-05-10T08:43:07.879Z,57.20
2023-05-10T08:45:41.082Z,58.80
2023-05-10T08:48:09.548Z,57.80
2023-05-10T08:50:42.042Z,58.90
2023-05-10T08:53:13.233Z,59.10
2023-05-10T08:55:41.105Z,58.50
2023-05-10T08:58:07.765Z,57.50
2023-05-10T09:00:35.214Z,58.20
2023-05-10T09:03:03.865Z,59.00
2023-05-10T09:05:30.515Z,59.30
2023-05-10T09:07:57.427Z,60.30
2023-05-10T09:10:26.407Z,58.90
2023-05-10T09:12:54.232Z,58.60
2023-05-10T09:15:21.003Z,58.80
2023-05-10T09:17:49.920Z,59.90
2023-05-10T09:20:16.586Z,59.20
2023-05-10T09:22:43.230Z,58.60
2023-05-10T09:25:12.350Z,59.30
2023-05-10T09:27:40.952Z,58.60
2023-05-10T09:30:08.736Z,57.70
2023-05-10T09:32:43.834Z,56.10
2023-05-10T09:35:18.806Z,56.50
2023-05-10T09:37:48.006Z,56.30
2023-05-10T09:40:17.955Z,56.40
2023-05-10T09:42:53.817Z,56.50
2023-05-10T09:45:21.122Z,56.20
2023-05-10T09:47:47.703Z,55.30
2023-05-10T09:50:14.162Z,55.80
2023-05-10T09:52:54.850Z,56.60
2023-05-10T09:55:23.640Z,55.60
2023-05-10T09:57:59.956Z,55.20
2023-05-10T10:00:27.504Z,55.40
2023-05-10T10:03:01.552Z,56.20
2023-05-10T10:05:35.995Z,57.80
2023-05-10T10:08:06.705Z,56.70
2023-05-10T10:10:34.278Z,56.90
2023-05-10T10:13:01.361Z,54.90
2023-05-10T10:15:28.438Z,55.00
2023-05-10T10:17:55.862Z,54.20
2023-05-10T10:20:24.079Z,53.70
2023-05-10T10:22:51.099Z,54.50
2023-05-10T10:25:19.393Z,54.40
2023-05-10T10:28:08.582Z,54.90
2023-05-10T10:30:51.167Z,55.60
2023-05-10T10:33:48.091Z,54.30
2023-05-10T10:36:16.176Z,54.40
2023-05-10T10:38:48.500Z,54.80
2023-05-10T10:41:31.847Z,55.40
2023-05-10T10:44:23.149Z,56.60
2023-05-10T10:47:13.730Z,56.80
2023-05-10T10:49:49.013Z,56.70
2023-05-10T10:52:31.570Z,56.50
2023-05-10T10:55:05.361Z,56.50
2023-05-10T10:57:53.087Z,57.90
2023-05-10T11:00:32.643Z,57.50
2023-05-10T11:03:07.555Z,58.30
2023-05-10T11:05:34.173Z,56.30
2023-05-10T11:08:07.822Z,56.90
2023-05-10T11:10:34.302Z,56.40
2023-05-10T11:13:08.958Z,56.50
2023-05-10T11:15:37.953Z,56.60
2023-05-10T11:18:21.570Z,56.60
2023-05-10T11:21:00.870Z,55.40
2023-05-10T11:23:52.088Z,55.30
2023-05-10T11:26:19.272Z,56.80
2023-05-10T11:28:50.246Z,55.70
2023-05-10T11:31:18.685Z,55.50
2023-05-10T11:33:49.713Z,54.30
2023-05-10T11:36:18.033Z,55.30
2023-05-10T11:38:45.640Z,53.50
2023-05-10T11:41:13.392Z,53.80
2023-05-10T11:43:41.294Z,53.70
2023-05-10T11:46:12.218Z,53.60
2023-05-10T11:48:43.009Z,52.80
2023-05-10T11:51:11.336Z,51.70
2023-05-10T11:53:38.101Z,51.20
2023-05-10T11:56:06.992Z,50.90
2023-05-10T11:58:34.593Z,51.30
2023-05-10T12:01:01.815Z,50.80
2023-05-10T12:03:29.351Z,51.20
2023-05-10T12:06:00.353Z,49.90
2023-05-10T12:08:28.629Z,49.80
2023-05-10T12:11:08.715Z,48.60
2023-05-10T12:13:43.046Z,49.80
2023-05-10T12:16:17.657Z,50.50
2023-05-10T12:18:44.294Z,48.80
2023-05-10T12:21:12.407Z,47.10
2023-05-10T12:23:43.074Z,47.30
2023-05-10T12:26:12.506Z,49.50
2023-05-10T12:28:40.043Z,45.70
2023-05-10T12:31:07.848Z,46.60
2023-05-10T12:33:42.325Z,47.20
2023-05-10T12:36:10.618Z,45.30
2023-05-10T12:38:38.122Z,45.70
2023-05-10T12:41:09.223Z,45.30
2023-05-10T12:43:36.658Z,43.80
2023-05-10T12:46:07.453Z,45.50
2023-05-10T12:48:34.922Z,45.80
2023-05-10T12:51:03.041Z,44.40
2023-05-10T12:53:29.959Z,44.40
2023-05-10T12:55:56.687Z,44.50
2023-05-10T12:58:34.960Z,44.20
2023-05-10T13:01:03.056Z,44.90
2023-05-10T13:03:29.551Z,46.10
2023-05-10T13:05:56.252Z,48.30
2023-05-10T13:08:23.133Z,48.80
2023-05-10T13:10:50.255Z,50.10
2023-05-10T13:13:16.752Z,49.20
2023-05-10T13:15:43.580Z,48.60
2023-05-10T13:18:10.118Z,49.20
2023-05-10T13:20:37.063Z,49.20
2023-05-10T13:23:03.761Z,48.80
2023-05-10T13:25:30.302Z,50.70
2023-05-10T13:27:57.190Z,49.00
2023-05-10T13:30:24.082Z,48.00
2023-05-10T13:32:50.628Z,48.80
2023-05-10T13:35:17.456Z,48.00
2023-05-10T13:37:43.939Z,47.60
2023-05-10T13:40:11.397Z,49.00
2023-05-10T13:42:38.198Z,47.90
2023-05-10T13:45:05.151Z,47.40
2023-05-10T13:47:31.713Z,47.90
2023-05-10T13:49:58.278Z,48.60
2023-05-10T13:52:25.112Z,48.90
2023-05-10T13:54:51.582Z,48.60
2023-05-10T13:57:18.482Z,47.90
2023-05-10T13:59:45.486Z,48.20
2023-05-10T14:02:12.077Z,48.20
2023-05-10T14:04:38.856Z,47.90
2023-05-10T14:07:06.526Z,48.00
2023-05-10T14:09:33.201Z,48.20
2023-05-10T14:11:59.761Z,46.80
2023-05-10T14:14:26.376Z,48.00
2023-05-10T14:16:53.370Z,47.10
2023-05-10T14:19:19.939Z,46.60
2023-05-10T14:21:46.723Z,47.60
2023-05-10T14:24:13.164Z,47.30
2023-05-10T14:26:39.975Z,46.70
2023-05-10T14:29:06.526Z,46.90
2023-05-10T14:31:33.325Z,47.20
2023-05-10T14:34:00.221Z,47.20
2023-05-10T14:36:26.844Z,46.20
2023-05-10T14:38:53.667Z,46.20
2023-05-10T14:41:20.126Z,47.30
2023-05-10T14:43:47.036Z,48.10
2023-05-10T14:46:13.549Z,47.70
2023-05-10T14:48:40.416Z,48.40
2023-05-10T14:51:06.921Z,48.10
2023-05-10T14:53:33.779Z,49.60
2023-05-10T14:56:00.253Z,49.70
2023-05-10T14:58:27.061Z,49.80
2023-05-10T15:00:53.635Z,50.80
2023-05-10T15:03:20.694Z,51.00
2023-05-10T15:05:48.016Z,51.60
2023-05-10T15:08:14.553Z,52.30
2023-05-10T15:10:41.481Z,52.50
2023-05-10T15:13:07.970Z,53.60
2023-05-10T15:15:34.788Z,53.60
2023-05-10T15:18:01.308Z,54.60
2023-05-10T15:20:28.353Z,56.10
2023-05-10T15:22:55.048Z,57.70
2023-05-10T15:25:21.998Z,58.30
2023-05-10T15:27:48.470Z,57.60
2023-05-10T15:30:15.106Z,59.40
2023-05-10T15:32:41.656Z,59.80
2023-05-10T15:35:11.424Z,59.80
2023-05-10T15:37:38.690Z,59.80
2023-05-10T15:40:05.838Z,60.00
2023-05-10T15:42:32.343Z,60.90
2023-05-10T15:44:59.224Z,61.10
2023-05-10T15:47:27.160Z,62.00
2023-05-10T15:49:53.683Z,62.00
2023-05-10T15:52:21.143Z,61.00
2023-05-10T15:54:48.007Z,62.20
2023-05-10T15:57:14.521Z,61.60
2023-05-10T15:59:41.489Z,61.30
2023-05-10T16:02:09.280Z,60.80
2023-05-10T16:04:35.826Z,60.50
2023-05-10T16:07:02.538Z,60.20
2023-05-10T16:09:29.000Z,58.50
2023-05-10T16:11:56.306Z,58.70
2023-05-10T16:14:22.774Z,58.70
2023-05-10T16:16:49.747Z,57.80
2023-05-10T16:19:16.318Z,58.20
2023-05-10T16:21:43.292Z,59.00
2023-05-10T16:24:10.154Z,56.60
2023-05-10T16:26:36.995Z,56.30
2023-05-10T16:29:03.456Z,56.70
2023-05-10T16:31:30.417Z,56.80
2023-05-10T16:33:56.904Z,56.80
2023-05-10T16:36:23.355Z,56.90
2023-05-10T16:38:49.789Z,56.90
2023-05-10T16:41:16.595Z,56.50
2023-05-10T16:43:43.314Z,55.70
2023-05-10T16:46:11.151Z,55.90
2023-05-10T16:48:38.019Z,56.10
2023-05-10T16:51:04.512Z,55.60
2023-05-10T16:53:31.492Z,55.30
2023-05-10T16:55:58.007Z,55.30
2023-05-10T16:58:24.568Z,55.60
2023-05-10T17:00:51.105Z,56.40
2023-05-10T17:03:17.623Z,55.50
2023-05-10T17:05:44.235Z,56.70
2023-05-10T17:08:10.706Z,57.20
2023-05-10T17:10:40.663Z,56.60
2023-05-10T17:13:09.846Z,56.60
2023-05-10T17:15:38.002Z,56.60
2023-05-10T17:18:05.973Z,56.50
2023-05-10T17:20:32.463Z,56.10
2023-05-10T17:22:59.347Z,56.40
2023-05-10T17:25:25.857Z,57.20
2023-05-10T17:27:52.721Z,57.70
2023-05-10T17:30:19.380Z,57.00
2023-05-10T17:32:45.881Z,57.90
2023-05-10T17:35:12.326Z,58.00
2023-05-10T17:37:39.418Z,58.70
2023-05-10T17:40:06.671Z,58.50
2023-05-10T17:42:33.877Z,58.20
2023-05-10T17:45:00.441Z,59.30
2023-05-10T17:47:26.959Z,59.70
2023-05-10T17:49:53.445Z,60.70
2023-05-10T17:52:19.978Z,60.50
2023-05-10T17:54:46.874Z,59.80
2023-05-10T17:57:13.325Z,59.90
2023-05-10T17:59:40.992Z,60.20
2023-05-10T18:02:07.466Z,60.00
2023-05-10T18:04:33.970Z,59.80
2023-05-10T18:07:00.496Z,59.30
2023-05-10T18:09:28.028Z,59.50
2023-05-10T18:11:54.559Z,59.80
2023-05-10T18:14:36.024Z,60.20
2023-05-10T18:17:07.276Z,59.90
2023-05-10T18:19:33.766Z,60.30
2023-05-10T18:22:00.545Z,60.60
2023-05-10T18:24:38.275Z,61.60
2023-05-10T18:27:07.904Z,60.90
2023-05-10T18:29:34.476Z,61.30
2023-05-10T18:32:00.938Z,61.90
2023-05-10T18:34:27.395Z,62.40
2023-05-10T18:36:53.996Z,62.40
2023-05-10T18:39:20.450Z,62.70
2023-05-10T18:41:46.938Z,62.80
2023-05-10T18:44:13.383Z,62.90
2023-05-10T18:46:39.901Z,63.70
2023-05-10T18:49:06.616Z,63.50
2023-05-10T18:51:33.107Z,63.90
2023-05-10T18:53:59.856Z,63.70
2023-05-10T18:56:26.373Z,63.80
2023-05-10T18:58:52.824Z,64.10
2023-05-10T19:01:19.345Z,64.20
2023-05-10T19:03:45.818Z,64.40
2023-05-10T19:06:12.291Z,64.40
2023-05-10T19:08:38.808Z,64.40
2023-05-10T19:11:05.534Z,64.40
2023-05-10T19:13:31.993Z,64.40
2023-05-10T19:16:14.470Z,64.40
2023-05-10T19:18:41.066Z,64.40
2023-05-10T19:21:09.415Z,64.40
2023-05-10T19:23:39.189Z,64.40
2023-05-10T19:26:05.746Z,64.40
2023-05-10T19:28:32.263Z,64.30
2023-05-10T19:30:58.734Z,64.30
2023-05-10T19:33:25.180Z,64.30
2023-05-10T19:35:52.618Z,64.30
2023-05-10T19:38:23.155Z,64.30
2023-05-10T19:40:54.888Z,64.30
2023-05-10T19:43:22.445Z,64.30
2023-05-10T19:45:48.886Z,64.90
2023-05-10T19:48:15.751Z,64.90
2023-05-10T19:50:42.227Z,64.80
2023-05-10T19:53:09.053Z,64.80
2023-05-10T19:55:35.546Z,64.90
2023-05-10T19:58:04.045Z,65.00
2023-05-10T20:00:31.299Z,64.90
2023-05-10T20:02:58.386Z,65.00
2023-05-10T20:05:25.243Z,65.20
2023-05-10T20:07:52.067Z,65.00
2023-05-10T20:10:18.898Z,65.20
2023-05-10T20:12:48.305Z,65.30
2023-05-10T20:15:15.044Z,65.50
2023-05-10T20:17:41.776Z,65.40
2023-05-10T20:20:08.608Z,65.50
2023-05-10T20:22:35.391Z,65.80
2023-05-10T20:25:02.047Z,65.80
2023-05-10T20:27:29.002Z,65.70
2023-05-10T20:29:55.464Z,65.80
2023-05-10T20:32:21.981Z,65.80
2023-05-10T20:34:48.443Z,66.10
2023-05-10T20:37:15.246Z,66.20
2023-05-10T20:39:41.672Z,66.20
2023-05-10T20:42:08.114Z,66.40
2023-05-10T20:44:34.581Z,66.40
2023-05-10T20:47:01.654Z,66.40
2023-05-10T20:49:28.411Z,66.60
2023-05-10T20:51:55.742Z,66.60
2023-05-10T20:54:23.072Z,67.00
2023-05-10T20:56:50.092Z,66.60
2023-05-10T20:59:17.132Z,67.00
2023-05-10T21:01:44.911Z,67.00
2023-05-10T21:04:11.737Z,67.20
2023-05-10T21:06:38.518Z,67.10
2023-05-10T21:09:05.063Z,67.50
2023-05-10T21:11:35.361Z,67.50
2023-05-10T21:14:03.025Z,67.50
2023-05-10T21:16:29.558Z,67.70
2023-05-10T21:18:56.344Z,67.70
2023-05-10T21:21:23.027Z,67.90
2023-05-10T21:23:49.801Z,67.80
2023-05-10T21:26:16.529Z,67.80
2023-05-10T21:28:43.772Z,67.90
2023-05-10T21:31:10.984Z,68.00
2023-05-10T21:33:39.747Z,68.10
2023-05-10T21:36:06.977Z,68.10
2023-05-10T21:38:33.491Z,68.10
2023-05-10T21:41:00.662Z,68.40
2023-05-10T21:43:27.214Z,67.90
2023-05-10T21:45:53.751Z,67.80
2023-05-10T21:48:20.563Z,68.00
2023-05-10T21:50:47.042Z,68.00
2023-05-10T21:53:13.906Z,67.80
2023-05-10T21:55:40.371Z,67.70
2023-05-10T21:58:07.125Z,67.50
2023-05-10T22:00:34.332Z,67.80
2023-05-10T22:03:01.469Z,67.90
2023-05-10T22:05:27.973Z,68.30
2023-05-10T22:07:54.900Z,68.10
2023-05-10T22:10:21.682Z,67.90
2023-05-10T22:12:48.135Z,67.90
2023-05-10T22:15:15.041Z,67.80
2023-05-10T22:17:41.591Z,67.90
2023-05-10T22:20:09.288Z,67.80
2023-05-10T22:22:35.834Z,67.80
2023-05-10T22:25:02.785Z,67.70
2023-05-10T22:27:29.258Z,67.60
2023-05-10T22:29:56.459Z,67.80
2023-05-10T22:32:23.343Z,67.70
2023-05-10T22:34:49.867Z,68.00
2023-05-10T22:37:16.695Z,67.80
2023-05-10T22:39:44.893Z,67.70
2023-05-10T22:42:11.800Z,67.70
2023-05-10T22:44:38.294Z,67.50
2023-05-10T22:47:05.070Z,67.70
2023-05-10T22:49:31.514Z,67.90
2023-05-10T22:51:57.946Z,67.50
2023-05-10T22:54:24.694Z,67.40
2023-05-10T22:56:51.265Z,67.30
2023-05-10T22:59:18.127Z,67.40
2023-05-10T23:01:44.583Z,67.30
2023-05-10T23:04:11.517Z,67.20
2023-05-10T23:06:37.992Z,67.20
2023-05-10T23:09:04.819Z,66.90
2023-05-10T23:11:31.738Z,67.10
2023-05-10T23:13:58.233Z,67.00
2023-05-10T23:16:25.127Z,67.10
2023-05-10T23:18:51.628Z,67.20
2023-05-10T23:21:18.496Z,67.00
2023-05-10T23:23:44.961Z,67.90
2023-05-10T23:26:11.896Z,67.40
2023-05-10T23:28:38.409Z,67.20
2023-05-10T23:31:05.258Z,66.50
2023-05-10T23:33:31.703Z,66.50
2023-05-10T23:35:58.511Z,66.50
2023-05-10T23:38:24.991Z,66.30
2023-05-10T23:40:51.853Z,66.50
2023-05-10T23:43:18.654Z,67.00
2023-05-10T23:45:56.180Z,67.30
2023-05-10T23:48:22.800Z,67.50
2023-05-10T23:50:49.716Z,67.50
2023-05-10T23:53:16.698Z,67.50
2023-05-10T23:55:43.184Z,67.30
2023-05-10T23:58:09.650Z,67.30
